createdAt,value
2018-12-11T00:00:25.539Z,0
2018-12-11T00:01:33.607Z,0
2018-12-11T00:02:41.673Z,0
2018-12-11T00:03:49.725Z,0
2018-12-11T00:04:57.777Z,0
2018-12-11T00:06:05.820Z,0
2018-12-11T00:07:13.890Z,0
2018-12-11T00:08:21.983Z,0
2018-12-11T00:09:30.029Z,0
2018-12-11T00:10:38.058Z,0
2018-12-11T00:11:46.121Z,0
2018-12-11T00:12:54.166Z,0
2018-12-11T00:14:02.229Z,0
2018-12-11T00:15:10.284Z,0
2018-12-11T00:16:18.328Z,0
2018-12-11T00:17:26.388Z,0
2018-12-11T00:18:34.447Z,0
2018-12-11T00:19:42.492Z,0
2018-12-11T00:20:50.558Z,0
2018-12-11T00:21:58.612Z,0
2018-12-11T00:23:06.671Z,0
2018-12-11T00:24:14.710Z,0
2018-12-11T00:25:22.784Z,0
2018-12-11T00:26:30.831Z,0
2018-12-11T00:27:38.901Z,0
2018-12-11T00:28:49.996Z,0
2018-12-11T00:30:01.280Z,0
2018-12-11T00:31:10.324Z,0
2018-12-11T00:32:18.374Z,0
2018-12-11T00:33:26.456Z,0
2018-12-11T00:34:34.506Z,0
2018-12-11T00:35:42.557Z,0
2018-12-11T00:36:50.606Z,0
2018-12-11T00:37:58.656Z,0
2018-12-11T00:39:06.716Z,0
2018-12-11T00:40:14.772Z,0
2018-12-11T00:41:22.825Z,0
2018-12-11T00:42:30.873Z,0
2018-12-11T00:43:38.929Z,0
2018-12-11T00:44:46.993Z,0
2018-12-11T00:45:55.040Z,0
2018-12-11T00:47:03.092Z,0
2018-12-11T00:48:11.140Z,0
2018-12-11T00:49:19.200Z,0
2018-12-11T00:50:27.259Z,0
2018-12-11T00:51:35.290Z,0
2018-12-11T00:52:43.370Z,0
2018-12-11T00:53:51.409Z,0
2018-12-11T00:54:59.465Z,0
2018-12-11T00:56:07.512Z,0
2018-12-11T00:57:15.562Z,0
2018-12-11T00:58:23.662Z,0
2018-12-11T00:59:31.706Z,0
2018-12-11T01:00:39.739Z,0
2018-12-11T01:01:47.796Z,0
2018-12-11T01:02:55.834Z,0
2018-12-11T01:04:03.880Z,0
2018-12-11T01:05:11.953Z,0
2018-12-11T01:06:20.003Z,0
2018-12-11T01:07:28.063Z,0
2018-12-11T01:08:36.106Z,0
2018-12-11T01:09:44.174Z,0
2018-12-11T01:10:52.361Z,0
2018-12-11T01:12:00.290Z,0
2018-12-11T01:13:08.333Z,0
2018-12-11T01:14:16.383Z,0
2018-12-11T01:15:24.764Z,0
2018-12-11T01:16:32.722Z,0
2018-12-11T01:17:41.921Z,0
2018-12-11T01:18:48.592Z,0
2018-12-11T01:19:56.635Z,0
2018-12-11T01:21:04.782Z,0
2018-12-11T01:22:12.767Z,0
2018-12-11T01:23:20.809Z,0
2018-12-11T01:24:28.872Z,0
2018-12-11T01:25:36.921Z,0
2018-12-11T01:26:45.038Z,0
2018-12-11T01:27:53.020Z,0
2018-12-11T01:29:01.076Z,0
2018-12-11T01:30:09.159Z,0
2018-12-11T01:31:17.184Z,0
2018-12-11T01:32:25.225Z,0
2018-12-11T01:33:33.295Z,0
2018-12-11T01:34:41.347Z,0
2018-12-11T01:35:49.397Z,0
2018-12-11T01:36:57.449Z,0
2018-12-11T01:38:05.564Z,0
2018-12-11T01:39:13.565Z,0
2018-12-11T01:40:21.610Z,0
2018-12-11T01:41:29.664Z,0
2018-12-11T01:42:37.728Z,0
2018-12-11T01:43:45.748Z,0
2018-12-11T01:44:53.899Z,0
2018-12-11T01:46:01.900Z,0
2018-12-11T01:47:09.939Z,0
2018-12-11T01:48:19.061Z,0
2018-12-11T01:49:26.029Z,0
2018-12-11T01:50:34.080Z,0
2018-12-11T01:51:42.151Z,0
2018-12-11T01:52:50.197Z,0
2018-12-11T01:53:58.333Z,0
2018-12-11T01:55:06.300Z,0
2018-12-11T01:56:14.335Z,0
2018-12-11T01:57:22.424Z,0
2018-12-11T01:58:31.455Z,0
2018-12-11T01:59:38.518Z,0
2018-12-11T02:00:46.570Z,0
2018-12-11T02:01:54.625Z,0
2018-12-11T02:03:02.677Z,0
2018-12-11T02:04:10.730Z,0
2018-12-11T02:05:18.777Z,0
2018-12-11T02:06:26.839Z,0
2018-12-11T02:07:34.878Z,0
2018-12-11T02:08:42.945Z,0
2018-12-11T02:09:50.992Z,0
2018-12-11T02:10:59.046Z,0
2018-12-11T02:12:07.097Z,0
2018-12-11T02:13:15.149Z,0
2018-12-11T02:14:23.209Z,0
2018-12-11T02:15:31.248Z,0
2018-12-11T02:16:39.308Z,0
2018-12-11T02:17:47.356Z,0
2018-12-11T02:18:55.395Z,0
2018-12-11T02:20:03.463Z,0
2018-12-11T02:21:12.290Z,0
2018-12-11T02:22:19.569Z,0
2018-12-11T02:23:27.627Z,0
2018-12-11T02:24:35.655Z,0
2018-12-11T02:25:43.900Z,0
2018-12-11T02:26:52.857Z,0
2018-12-11T02:27:59.837Z,0
2018-12-11T02:29:08.104Z,0
2018-12-11T02:30:16.076Z,0
2018-12-11T02:31:23.997Z,0
2018-12-11T02:32:32.048Z,0
2018-12-11T02:33:40.102Z,0
2018-12-11T02:34:48.140Z,0
2018-12-11T02:35:56.210Z,0
2018-12-11T02:37:04.268Z,0
2018-12-11T02:38:12.307Z,0
2018-12-11T02:39:20.452Z,0
2018-12-11T02:40:28.535Z,0
2018-12-11T02:41:36.480Z,0
2018-12-11T02:42:44.520Z,0
2018-12-11T02:43:52.570Z,0
2018-12-11T02:45:00.633Z,0
2018-12-11T02:46:08.680Z,0
2018-12-11T02:47:16.742Z,0
2018-12-11T02:48:24.771Z,0
2018-12-11T02:49:32.843Z,0
2018-12-11T02:50:40.965Z,0
2018-12-11T02:51:48.939Z,0
2018-12-11T02:52:58.009Z,0
2018-12-11T02:54:05.018Z,0
2018-12-11T02:55:13.102Z,0
2018-12-11T02:56:21.258Z,0
2018-12-11T02:57:29.217Z,0
2018-12-11T02:58:37.265Z,0
2018-12-11T02:59:45.289Z,0
2018-12-11T03:00:53.360Z,0
2018-12-11T03:02:01.422Z,0
2018-12-11T03:03:09.481Z,0
2018-12-11T03:04:17.523Z,0
2018-12-11T03:05:25.544Z,0
2018-12-11T03:06:33.629Z,0
2018-12-11T03:07:41.690Z,0
2018-12-11T03:08:49.733Z,0
2018-12-11T03:09:57.870Z,0
2018-12-11T03:11:05.835Z,0
2018-12-11T03:12:13.899Z,0
2018-12-11T03:13:21.950Z,0
2018-12-11T03:14:29.998Z,0
2018-12-11T03:15:38.036Z,0
2018-12-11T03:16:46.102Z,0
2018-12-11T03:17:54.148Z,0
2018-12-11T03:19:02.205Z,0
2018-12-11T03:20:10.256Z,0
2018-12-11T03:21:18.314Z,0
2018-12-11T03:22:26.374Z,0
2018-12-11T03:23:34.511Z,0
2018-12-11T03:24:42.477Z,0
2018-12-11T03:25:50.524Z,0
2018-12-11T03:26:58.581Z,0
2018-12-11T03:28:06.716Z,0
2018-12-11T03:29:14.680Z,0
2018-12-11T03:30:22.741Z,0
2018-12-11T03:31:30.794Z,0
2018-12-11T03:32:38.844Z,0
2018-12-11T03:33:46.901Z,0
2018-12-11T03:34:54.931Z,0
2018-12-11T03:36:02.999Z,0
2018-12-11T03:37:11.085Z,0
2018-12-11T03:38:19.103Z,0
2018-12-11T03:39:27.171Z,0
2018-12-11T03:40:35.192Z,0
2018-12-11T03:41:43.274Z,0
2018-12-11T03:42:51.314Z,0
2018-12-11T03:43:59.379Z,0
2018-12-11T03:45:07.419Z,0
2018-12-11T03:46:15.454Z,0
2018-12-11T03:47:23.532Z,0
2018-12-11T03:48:31.578Z,0
2018-12-11T03:49:39.640Z,0
2018-12-11T03:50:47.704Z,0
2018-12-11T03:51:55.736Z,0
2018-12-11T03:53:03.787Z,0
2018-12-11T03:54:11.860Z,0
2018-12-11T03:55:19.899Z,0
2018-12-11T03:56:27.955Z,0
2018-12-11T03:57:35.998Z,0
2018-12-11T03:58:44.068Z,0
2018-12-11T03:59:52.122Z,0
2018-12-11T04:01:00.171Z,0
2018-12-11T04:02:08.234Z,0
2018-12-11T04:03:16.279Z,0
2018-12-11T04:04:24.334Z,0
2018-12-11T04:05:32.380Z,0
2018-12-11T04:06:40.438Z,0
2018-12-11T04:07:48.487Z,0
2018-12-11T04:08:56.541Z,0
2018-12-11T04:10:04.604Z,0
2018-12-11T04:11:12.661Z,0
2018-12-11T04:12:20.702Z,0
2018-12-11T04:13:28.758Z,0
2018-12-11T04:14:36.844Z,0
2018-12-11T04:15:44.846Z,0
2018-12-11T04:16:52.915Z,0
2018-12-11T04:18:00.961Z,0
2018-12-11T04:19:09.023Z,0
2018-12-11T04:20:17.058Z,0
2018-12-11T04:21:25.111Z,0
2018-12-11T04:22:33.191Z,0
2018-12-11T04:23:41.234Z,0
2018-12-11T04:24:49.280Z,0
2018-12-11T04:25:57.341Z,0
2018-12-11T04:27:05.368Z,0
2018-12-11T04:28:13.450Z,0
2018-12-11T04:29:21.501Z,0
2018-12-11T04:30:29.539Z,0
2018-12-11T04:31:37.599Z,0
2018-12-11T04:32:45.645Z,0
2018-12-11T04:33:53.717Z,0
2018-12-11T04:35:01.776Z,0
2018-12-11T04:36:09.820Z,0
2018-12-11T04:37:17.869Z,0
2018-12-11T04:38:25.919Z,0
2018-12-11T04:39:34.197Z,0
2018-12-11T04:40:42.041Z,0
2018-12-11T04:41:50.071Z,0
2018-12-11T04:42:58.133Z,0
2018-12-11T04:44:06.189Z,0
2018-12-11T04:45:14.304Z,0
2018-12-11T04:46:22.296Z,0
2018-12-11T04:47:30.354Z,0
2018-12-11T04:48:38.402Z,0
2018-12-11T04:49:46.458Z,0
2018-12-11T04:50:54.519Z,0
2018-12-11T04:52:02.565Z,0
2018-12-11T04:53:10.615Z,0
2018-12-11T04:54:18.674Z,0
2018-12-11T04:55:26.726Z,0
2018-12-11T04:56:34.763Z,0
2018-12-11T04:57:42.831Z,0
2018-12-11T04:58:50.881Z,0
2018-12-11T04:59:58.946Z,0
2018-12-11T05:01:06.991Z,0
2018-12-11T05:02:15.016Z,0
2018-12-11T05:03:23.102Z,0
2018-12-11T05:04:31.149Z,0
2018-12-11T05:05:39.199Z,0
2018-12-11T05:06:47.263Z,0
2018-12-11T05:07:55.288Z,0
2018-12-11T05:09:03.371Z,0
2018-12-11T05:10:11.438Z,0
2018-12-11T05:11:19.501Z,0
2018-12-11T05:12:27.523Z,0
2018-12-11T05:13:35.553Z,0
2018-12-11T05:14:43.624Z,0
2018-12-11T05:15:51.685Z,0
2018-12-11T05:16:59.724Z,0
2018-12-11T05:18:07.789Z,0
2018-12-11T05:19:15.806Z,0
2018-12-11T05:20:23.889Z,0
2018-12-11T05:21:31.937Z,0
2018-12-11T05:22:39.982Z,0
2018-12-11T05:23:48.056Z,0
2018-12-11T05:24:56.114Z,0
2018-12-11T05:26:04.157Z,0
2018-12-11T05:27:12.209Z,0
2018-12-11T05:28:20.248Z,0
2018-12-11T05:29:28.317Z,0
2018-12-11T05:30:36.356Z,0
2018-12-11T05:31:44.422Z,0
2018-12-11T05:32:52.467Z,0
2018-12-11T05:34:00.539Z,0
2018-12-11T05:35:08.579Z,0
2018-12-11T05:36:16.634Z,0
2018-12-11T05:37:24.674Z,0
2018-12-11T05:38:32.748Z,0
2018-12-11T05:39:40.783Z,0
2018-12-11T05:40:48.831Z,0
2018-12-11T05:41:58.461Z,0
2018-12-11T05:43:04.937Z,0
2018-12-11T05:44:13.001Z,0
2018-12-11T05:45:21.049Z,0
2018-12-11T05:46:29.097Z,0
2018-12-11T05:47:37.153Z,0
2018-12-11T05:48:45.178Z,0
2018-12-11T05:49:53.260Z,0
2018-12-11T05:51:01.309Z,0
2018-12-11T05:52:09.388Z,0
2018-12-11T05:53:17.420Z,0
2018-12-11T05:54:25.441Z,0
2018-12-11T05:55:33.528Z,0
2018-12-11T05:56:41.567Z,0
2018-12-11T05:57:49.636Z,0
2018-12-11T05:58:57.681Z,0
2018-12-11T06:00:05.712Z,0
2018-12-11T06:01:13.787Z,0
2018-12-11T06:02:21.819Z,4
2018-12-11T06:03:29.879Z,0
2018-12-11T06:04:37.935Z,0
2018-12-11T06:05:46.011Z,0
2018-12-11T06:06:54.042Z,0
2018-12-11T06:08:02.300Z,0
2018-12-11T06:09:10.328Z,0
2018-12-11T06:10:18.207Z,0
2018-12-11T06:11:27.165Z,0
2018-12-11T06:12:34.666Z,0
2018-12-11T06:13:42.366Z,0
2018-12-11T06:14:50.559Z,0
2018-12-11T06:15:58.565Z,0
2018-12-11T06:17:06.563Z,0
2018-12-11T06:18:14.584Z,0
2018-12-11T06:19:22.627Z,0
2018-12-11T06:20:30.682Z,0
2018-12-11T06:21:38.729Z,0
2018-12-11T06:22:46.867Z,0
2018-12-11T06:23:54.834Z,0
2018-12-11T06:25:03.064Z,0
2018-12-11T06:26:10.932Z,0
2018-12-11T06:27:18.970Z,0
2018-12-11T06:28:27.041Z,4
2018-12-11T06:29:35.070Z,4
2018-12-11T06:30:43.137Z,0
2018-12-11T06:31:51.208Z,4
2018-12-11T06:32:59.259Z,4
2018-12-11T06:34:07.303Z,4
2018-12-11T06:35:15.336Z,4
2018-12-11T06:36:23.414Z,4
2018-12-11T06:37:31.479Z,8
2018-12-11T06:38:39.517Z,12
2018-12-11T06:39:47.574Z,12
2018-12-11T06:40:55.592Z,16
2018-12-11T06:42:03.683Z,16
2018-12-11T06:43:11.735Z,20
2018-12-11T06:44:19.777Z,20
2018-12-11T06:45:27.829Z,28
2018-12-11T06:46:35.877Z,32
2018-12-11T06:47:43.946Z,40
2018-12-11T06:48:51.996Z,48
2018-12-11T06:50:00.038Z,56
2018-12-11T06:51:08.098Z,64
2018-12-11T06:52:16.147Z,76
2018-12-11T06:53:24.184Z,84
2018-12-11T06:54:32.256Z,88
2018-12-11T06:55:40.299Z,104
2018-12-11T06:56:48.355Z,116
2018-12-11T06:57:56.412Z,128
2018-12-11T06:59:04.509Z,144
2018-12-11T07:00:12.564Z,160
2018-12-11T07:01:20.555Z,172
2018-12-11T07:02:28.711Z,184
2018-12-11T07:03:36.663Z,200
2018-12-11T07:04:44.735Z,224
2018-12-11T07:05:52.778Z,244
2018-12-11T07:07:00.826Z,264
2018-12-11T07:08:08.884Z,280
2018-12-11T07:09:16.922Z,300
2018-12-11T07:10:25.988Z,328
2018-12-11T07:11:33.023Z,340
2018-12-11T07:12:41.088Z,360
2018-12-11T07:13:49.154Z,388
2018-12-11T07:14:57.193Z,412
2018-12-11T07:16:05.225Z,440
2018-12-11T07:17:13.321Z,472
2018-12-11T07:18:25.889Z,512
2018-12-11T07:19:29.400Z,544
2018-12-11T07:20:37.452Z,552
2018-12-11T07:21:45.482Z,560
2018-12-11T07:22:53.550Z,588
2018-12-11T07:24:01.612Z,612
2018-12-11T07:25:09.724Z,636
2018-12-11T07:26:17.724Z,648
2018-12-11T07:27:25.749Z,660
2018-12-11T07:28:33.822Z,688
2018-12-11T07:29:41.865Z,712
2018-12-11T07:30:49.914Z,736
2018-12-11T07:31:57.984Z,764
2018-12-11T07:33:06.023Z,784
2018-12-11T07:34:14.082Z,804
2018-12-11T07:35:22.137Z,836
2018-12-11T07:36:30.187Z,852
2018-12-11T07:37:38.228Z,872
2018-12-11T07:38:46.284Z,900
2018-12-11T07:39:54.345Z,928
2018-12-11T07:41:02.430Z,960
2018-12-11T07:42:10.486Z,1016
2018-12-11T07:43:18.497Z,1088
2018-12-11T07:44:26.557Z,1104
2018-12-11T07:45:34.607Z,1124
2018-12-11T07:46:42.658Z,1168
2018-12-11T07:47:50.713Z,1188
2018-12-11T07:48:58.757Z,1196
2018-12-11T07:50:06.812Z,1220
2018-12-11T07:51:14.838Z,1316
2018-12-11T07:52:22.912Z,1336
2018-12-11T07:53:30.975Z,1296
2018-12-11T07:54:39.023Z,1388
2018-12-11T07:55:47.072Z,1424
2018-12-11T07:56:55.102Z,1472
2018-12-11T07:58:03.178Z,1644
2018-12-11T07:59:11.237Z,1828
2018-12-11T08:00:19.294Z,1936
2018-12-11T08:01:27.335Z,2120
2018-12-11T08:02:35.383Z,2372
2018-12-11T08:03:43.450Z,2328
2018-12-11T08:04:51.495Z,2180
2018-12-11T08:05:59.549Z,2104
2018-12-11T08:07:07.601Z,2128
2018-12-11T08:08:15.631Z,2284
2018-12-11T08:09:23.716Z,2248
2018-12-11T08:10:31.759Z,2112
2018-12-11T08:11:39.828Z,2152
2018-12-11T08:12:47.872Z,2460
2018-12-11T08:13:55.909Z,2824
2018-12-11T08:15:03.973Z,3120
2018-12-11T08:16:12.031Z,3396
2018-12-11T08:17:20.079Z,3388
2018-12-11T08:18:28.120Z,3284
2018-12-11T08:19:36.177Z,3276
2018-12-11T08:20:44.219Z,3296
2018-12-11T08:21:52.284Z,3252
2018-12-11T08:23:00.351Z,3252
2018-12-11T08:24:08.399Z,3316
2018-12-11T08:25:16.457Z,3432
2018-12-11T08:26:24.500Z,3592
2018-12-11T08:27:32.551Z,3632
2018-12-11T08:28:40.616Z,3532
2018-12-11T08:29:48.680Z,3416
2018-12-11T08:30:56.716Z,3356
2018-12-11T08:32:04.774Z,3324
2018-12-11T08:33:12.826Z,3248
2018-12-11T08:34:20.892Z,3000
2018-12-11T08:35:28.928Z,2756
2018-12-11T08:36:37.008Z,2812
2018-12-11T08:37:45.013Z,3972
2018-12-11T08:38:53.090Z,3924
2018-12-11T08:40:01.150Z,2568
2018-12-11T08:41:09.195Z,3064
2018-12-11T08:42:17.252Z,3272
2018-12-11T08:43:25.292Z,3276
2018-12-11T08:44:33.354Z,3092
2018-12-11T08:45:41.416Z,3136
2018-12-11T08:46:49.479Z,3372
2018-12-11T08:47:57.522Z,3568
2018-12-11T08:49:05.551Z,3832
2018-12-11T08:50:13.639Z,4124
2018-12-11T08:51:21.684Z,4456
2018-12-11T08:52:29.747Z,4648
2018-12-11T08:53:37.795Z,4876
2018-12-11T08:54:45.844Z,5440
2018-12-11T08:55:53.904Z,5888
2018-12-11T08:57:01.956Z,5532
2018-12-11T08:58:10.008Z,4916
2018-12-11T08:59:18.066Z,4508
2018-12-11T09:00:26.126Z,4556
2018-12-11T09:01:34.184Z,4308
2018-12-11T09:02:42.226Z,4116
2018-12-11T09:03:50.281Z,4292
2018-12-11T09:04:58.338Z,4500
2018-12-11T09:06:06.399Z,4556
2018-12-11T09:07:14.445Z,4332
2018-12-11T09:08:22.517Z,4244
2018-12-11T09:09:30.564Z,3992
2018-12-11T09:10:38.623Z,3572
2018-12-11T09:11:46.660Z,3212
2018-12-11T09:12:54.727Z,3048
2018-12-11T09:14:02.775Z,3016
2018-12-11T09:15:10.823Z,2928
2018-12-11T09:16:18.885Z,2772
2018-12-11T09:17:26.932Z,2644
2018-12-11T09:18:34.982Z,2536
2018-12-11T09:19:43.058Z,2424
2018-12-11T09:20:51.111Z,2448
2018-12-11T09:21:59.155Z,2520
2018-12-11T09:23:07.254Z,2640
2018-12-11T09:24:15.239Z,2748
2018-12-11T09:25:23.318Z,2952
2018-12-11T09:26:31.377Z,3000
2018-12-11T09:27:39.423Z,3328
2018-12-11T09:28:47.486Z,3648
2018-12-11T09:29:55.520Z,4336
2018-12-11T09:31:03.605Z,5164
2018-12-11T09:32:11.648Z,5368
2018-12-11T09:33:19.703Z,5456
2018-12-11T09:34:27.759Z,5760
2018-12-11T09:35:35.830Z,5808
2018-12-11T09:36:43.859Z,5988
2018-12-11T09:37:51.911Z,6096
2018-12-11T09:38:59.983Z,6644
2018-12-11T09:40:08.028Z,7172
2018-12-11T09:41:16.090Z,6956
2018-12-11T09:42:27.837Z,6860
2018-12-11T09:43:32.191Z,6772
2018-12-11T09:44:40.263Z,5996
2018-12-11T09:45:48.311Z,5036
2018-12-11T09:46:56.353Z,4324
2018-12-11T09:48:04.418Z,3712
2018-12-11T09:49:12.475Z,3508
2018-12-11T09:50:20.524Z,3456
2018-12-11T09:51:28.580Z,3492
2018-12-11T09:52:36.637Z,3592
2018-12-11T09:53:44.703Z,3576
2018-12-11T09:54:52.754Z,3472
2018-12-11T09:56:00.796Z,3536
2018-12-11T09:57:08.866Z,3396
2018-12-11T09:58:16.921Z,3320
2018-12-11T09:59:24.961Z,3220
2018-12-11T10:00:33.071Z,3192
2018-12-11T10:01:41.076Z,3276
2018-12-11T10:02:49.149Z,3544
2018-12-11T10:03:57.199Z,3844
2018-12-11T10:05:05.226Z,4172
2018-12-11T10:06:13.299Z,4612
2018-12-11T10:07:21.358Z,5284
2018-12-11T10:08:29.420Z,6040
2018-12-11T10:09:37.465Z,6600
2018-12-11T10:10:45.513Z,6784
2018-12-11T10:11:53.587Z,6796
2018-12-11T10:13:01.655Z,6792
2018-12-11T10:14:09.697Z,6908
2018-12-11T10:15:17.759Z,7080
2018-12-11T10:16:25.791Z,7184
2018-12-11T10:17:33.856Z,7256
2018-12-11T10:18:41.920Z,7232
2018-12-11T10:19:49.986Z,7176
2018-12-11T10:20:58.027Z,7120
2018-12-11T10:22:06.121Z,7052
2018-12-11T10:23:14.143Z,6992
2018-12-11T10:24:22.186Z,6956
2018-12-11T10:25:30.254Z,6924
2018-12-11T10:26:38.324Z,6672
2018-12-11T10:27:46.368Z,6432
2018-12-11T10:28:54.422Z,6368
2018-12-11T10:30:02.483Z,6324
2018-12-11T10:31:10.532Z,6132
2018-12-11T10:32:21.805Z,5796
2018-12-11T10:33:26.644Z,5212
2018-12-11T10:34:34.698Z,4880
2018-12-11T10:35:42.769Z,4732
2018-12-11T10:36:50.848Z,4784
2018-12-11T10:37:58.888Z,4864
2018-12-11T10:39:06.937Z,5000
2018-12-11T10:40:14.972Z,5132
2018-12-11T10:41:23.050Z,5444
2018-12-11T10:42:31.116Z,5976
2018-12-11T10:43:39.159Z,6044
2018-12-11T10:44:47.362Z,6052
2018-12-11T10:45:55.502Z,6128
2018-12-11T10:47:03.334Z,6412
2018-12-11T10:48:11.454Z,6620
2018-12-11T10:49:19.448Z,6740
2018-12-11T10:50:27.513Z,6888
2018-12-11T10:51:35.541Z,7032
2018-12-11T10:52:43.620Z,7140
2018-12-11T10:53:51.780Z,7256
2018-12-11T10:54:59.738Z,7132
2018-12-11T10:56:07.791Z,7200
2018-12-11T10:57:16.082Z,7388
2018-12-11T10:58:23.933Z,7524
2018-12-11T10:59:31.960Z,7720
2018-12-11T11:00:40.373Z,7804
2018-12-11T11:01:48.306Z,7820
2018-12-11T11:02:56.362Z,7728
2018-12-11T11:04:04.189Z,7788
2018-12-11T11:05:12.442Z,8028
2018-12-11T11:06:20.493Z,8068
2018-12-11T11:07:28.534Z,7940
2018-12-11T11:08:36.611Z,7864
2018-12-11T11:09:44.501Z,7920
2018-12-11T11:10:52.534Z,7652
2018-12-11T11:12:00.586Z,7732
2018-12-11T11:13:08.645Z,7576
2018-12-11T11:14:16.708Z,7508
2018-12-11T11:15:25.322Z,7380
2018-12-11T11:16:32.945Z,7372
2018-12-11T11:17:40.920Z,7600
2018-12-11T11:18:49.140Z,7784
2018-12-11T11:19:57.054Z,8136
2018-12-11T11:21:05.191Z,7888
2018-12-11T11:22:13.324Z,7564
2018-12-11T11:23:21.238Z,7456
2018-12-11T11:24:29.876Z,7340
2018-12-11T11:25:37.473Z,7540
2018-12-11T11:26:45.508Z,7476
2018-12-11T11:27:54.007Z,7284
2018-12-11T11:29:01.867Z,7124
2018-12-11T11:30:11.183Z,7004
2018-12-11T11:31:18.148Z,6912
2018-12-11T11:32:26.446Z,6884
2018-12-11T11:33:33.908Z,6960
2018-12-11T11:34:41.744Z,7076
2018-12-11T11:35:49.793Z,7212
2018-12-11T11:36:57.860Z,7480
2018-12-11T11:38:06.770Z,7348
2018-12-11T11:39:14.641Z,7472
2018-12-11T11:40:22.675Z,7636
2018-12-11T11:41:30.684Z,7780
2018-12-11T11:42:38.754Z,7868
2018-12-11T11:43:46.764Z,8060
2018-12-11T11:44:54.899Z,7992
2018-12-11T11:46:04.412Z,8016
2018-12-11T11:47:11.026Z,7824
2018-12-11T11:48:19.054Z,7572
2018-12-11T11:49:27.775Z,7440
2018-12-11T11:50:35.123Z,7444
2018-12-11T11:51:43.254Z,7648
2018-12-11T11:52:51.297Z,7952
2018-12-11T11:53:59.222Z,8072
2018-12-11T11:55:07.404Z,7964
2018-12-11T11:56:15.400Z,7740
2018-12-11T11:57:29.519Z,7416
2018-12-11T11:58:31.413Z,7212
2018-12-11T11:59:39.570Z,6804
2018-12-11T12:00:47.647Z,6700
2018-12-11T12:01:55.743Z,6584
2018-12-11T12:03:03.790Z,6400
2018-12-11T12:04:11.879Z,6224
2018-12-11T12:05:19.925Z,6108
2018-12-11T12:06:27.866Z,5964
2018-12-11T12:07:36.000Z,5756
2018-12-11T12:08:44.125Z,5656
2018-12-11T12:09:52.184Z,5620
2018-12-11T12:11:00.265Z,5616
2018-12-11T12:12:08.329Z,5636
2018-12-11T12:13:17.469Z,5700
2018-12-11T12:14:27.613Z,5744
2018-12-11T12:15:32.480Z,5768
2018-12-11T12:16:41.577Z,5756
2018-12-11T12:17:48.601Z,5748
2018-12-11T12:18:57.257Z,5696
2018-12-11T12:20:04.720Z,5668
2018-12-11T12:21:12.707Z,5628
2018-12-11T12:22:21.955Z,5560
2018-12-11T12:23:28.808Z,5468
2018-12-11T12:24:36.901Z,5300
2018-12-11T12:25:45.034Z,5120
2018-12-11T12:26:52.931Z,4928
2018-12-11T12:28:01.085Z,4696
2018-12-11T12:29:09.111Z,4680
2018-12-11T12:30:17.268Z,4364
2018-12-11T12:31:25.198Z,4404
2018-12-11T12:32:34.548Z,4300
2018-12-11T12:33:41.268Z,4144
2018-12-11T12:34:51.309Z,3984
2018-12-11T12:35:57.470Z,3792
2018-12-11T12:37:05.587Z,3624
2018-12-11T12:38:13.619Z,3468
2018-12-11T12:39:21.614Z,3100
2018-12-11T12:40:29.622Z,2956
2018-12-11T12:41:37.768Z,3156
2018-12-11T12:42:45.854Z,3088
2018-12-11T12:43:53.871Z,2992
2018-12-11T12:45:02.346Z,2924
2018-12-11T12:46:09.880Z,2864
2018-12-11T12:47:18.112Z,2808
2018-12-11T12:48:26.079Z,2784
2018-12-11T12:49:35.309Z,2784
2018-12-11T12:50:42.197Z,2804
2018-12-11T12:51:50.289Z,2844
2018-12-11T12:52:58.853Z,2888
2018-12-11T12:54:09.672Z,2924
2018-12-11T12:55:14.492Z,2968
2018-12-11T12:56:22.550Z,3024
2018-12-11T12:57:31.297Z,3088
2018-12-11T12:58:38.692Z,3112
2018-12-11T12:59:46.602Z,3104
2018-12-11T13:00:54.780Z,3072
2018-12-11T13:02:02.835Z,3028
2018-12-11T13:03:10.850Z,2972
2018-12-11T13:04:18.957Z,2916
2018-12-11T13:05:26.940Z,2884
2018-12-11T13:06:35.027Z,2864
2018-12-11T13:07:43.109Z,2864
2018-12-11T13:08:51.087Z,2888
2018-12-11T13:09:59.235Z,2928
2018-12-11T13:11:07.265Z,3004
2018-12-11T13:12:15.176Z,3048
2018-12-11T13:13:23.419Z,3040
2018-12-11T13:14:31.352Z,3008
2018-12-11T13:15:39.526Z,2984
2018-12-11T13:16:47.604Z,3016
2018-12-11T13:17:55.563Z,3056
2018-12-11T13:19:03.690Z,3076
2018-12-11T13:20:13.860Z,3052
2018-12-11T13:21:19.810Z,2996
2018-12-11T13:22:27.859Z,2944
2018-12-11T13:23:35.867Z,2904
2018-12-11T13:24:43.917Z,2880
2018-12-11T13:25:52.063Z,2876
2018-12-11T13:26:59.971Z,2892
2018-12-11T13:28:08.044Z,2924
2018-12-11T13:29:16.150Z,2948
2018-12-11T13:30:24.301Z,2964
2018-12-11T13:31:32.164Z,2964
2018-12-11T13:32:40.322Z,2944
2018-12-11T13:33:49.400Z,2920
2018-12-11T13:34:56.316Z,2936
2018-12-11T13:36:04.542Z,2972
2018-12-11T13:37:12.467Z,3004
2018-12-11T13:38:20.573Z,3016
2018-12-11T13:39:28.691Z,3032
2018-12-11T13:40:36.764Z,3044
2018-12-11T13:41:44.495Z,3044
2018-12-11T13:42:52.726Z,3072
2018-12-11T13:44:00.697Z,3124
2018-12-11T13:45:08.913Z,3216
2018-12-11T13:46:16.925Z,3352
2018-12-11T13:47:24.902Z,3300
2018-12-11T13:48:34.327Z,3364
2018-12-11T13:49:41.446Z,3440
2018-12-11T13:50:49.555Z,3524
2018-12-11T13:51:57.100Z,3580
2018-12-11T13:53:05.166Z,3728
2018-12-11T13:54:13.172Z,3632
2018-12-11T13:55:21.452Z,3476
2018-12-11T13:56:29.434Z,3284
2018-12-11T13:57:37.454Z,3112
2018-12-11T13:58:45.589Z,2964
2018-12-11T13:59:53.473Z,2828
2018-12-11T14:01:01.812Z,2680
2018-12-11T14:02:09.625Z,2392
2018-12-11T14:03:17.785Z,2372
2018-12-11T14:04:25.670Z,2208
2018-12-11T14:05:33.871Z,2124
2018-12-11T14:06:42.003Z,2052
2018-12-11T14:07:49.996Z,2008
2018-12-11T14:08:57.834Z,2020
2018-12-11T14:10:06.155Z,2196
2018-12-11T14:11:14.127Z,2072
2018-12-11T14:12:22.207Z,2060
2018-12-11T14:13:30.186Z,2076
2018-12-11T14:14:38.027Z,2152
2018-12-11T14:15:46.722Z,2128
2018-12-11T14:16:54.189Z,2020
2018-12-11T14:18:02.320Z,1928
2018-12-11T14:19:10.606Z,1848
2018-12-11T14:20:18.102Z,1788
2018-12-11T14:21:26.153Z,1756
2018-12-11T14:22:34.231Z,1740
2018-12-11T14:23:42.278Z,1720
2018-12-11T14:24:50.324Z,1692
2018-12-11T14:25:58.394Z,1672
2018-12-11T14:27:06.431Z,1660
2018-12-11T14:28:14.511Z,1656
2018-12-11T14:29:22.665Z,1708
2018-12-11T14:30:30.623Z,1732
2018-12-11T14:31:38.672Z,1696
2018-12-11T14:32:46.726Z,1652
2018-12-11T14:33:55.050Z,1544
2018-12-11T14:35:02.838Z,1448
2018-12-11T14:36:10.889Z,1396
2018-12-11T14:37:18.945Z,1360
2018-12-11T14:38:27.063Z,1324
2018-12-11T14:39:35.043Z,1292
2018-12-11T14:40:43.109Z,1264
2018-12-11T14:41:51.186Z,1236
2018-12-11T14:42:59.601Z,1216
2018-12-11T14:44:07.697Z,1196
2018-12-11T14:45:15.486Z,1176
2018-12-11T14:46:23.392Z,1148
2018-12-11T14:47:31.459Z,1128
2018-12-11T14:48:39.736Z,1108
2018-12-11T14:49:47.559Z,1084
2018-12-11T14:50:55.612Z,1064
2018-12-11T14:52:03.679Z,1044
2018-12-11T14:53:11.718Z,1028
2018-12-11T14:54:19.777Z,1012
2018-12-11T14:55:27.834Z,996
2018-12-11T14:56:35.880Z,980
2018-12-11T14:57:43.940Z,968
2018-12-11T14:58:52.044Z,948
2018-12-11T15:00:00.061Z,932
2018-12-11T15:01:08.102Z,908
2018-12-11T15:02:16.164Z,884
2018-12-11T15:03:24.239Z,856
2018-12-11T15:04:32.274Z,824
2018-12-11T15:05:40.389Z,788
2018-12-11T15:06:48.390Z,752
2018-12-11T15:07:56.662Z,724
2018-12-11T15:09:04.521Z,688
2018-12-11T15:10:12.565Z,656
2018-12-11T15:11:20.818Z,616
2018-12-11T15:12:28.676Z,580
2018-12-11T15:13:36.719Z,548
2018-12-11T15:14:44.761Z,516
2018-12-11T15:15:52.828Z,488
2018-12-11T15:17:00.900Z,448
2018-12-11T15:18:08.937Z,416
2018-12-11T15:19:17.011Z,380
2018-12-11T15:20:25.264Z,344
2018-12-11T15:21:33.106Z,308
2018-12-11T15:22:41.152Z,280
2018-12-11T15:23:49.210Z,252
2018-12-11T15:24:57.267Z,228
2018-12-11T15:26:05.515Z,212
2018-12-11T15:27:13.405Z,192
2018-12-11T15:28:21.427Z,176
2018-12-11T15:29:29.489Z,160
2018-12-11T15:30:37.923Z,144
2018-12-11T15:31:45.769Z,128
2018-12-11T15:32:53.769Z,120
2018-12-11T15:34:02.248Z,108
2018-12-11T15:35:10.141Z,100
2018-12-11T15:36:17.820Z,92
2018-12-11T15:37:25.880Z,88
2018-12-11T15:38:34.331Z,76
2018-12-11T15:39:42.254Z,72
2018-12-11T15:40:50.714Z,64
2018-12-11T15:41:58.263Z,60
2018-12-11T15:43:06.565Z,52
2018-12-11T15:44:14.231Z,44
2018-12-11T15:45:22.330Z,40
2018-12-11T15:46:30.301Z,32
2018-12-11T15:47:38.395Z,28
2018-12-11T15:48:46.489Z,24
2018-12-11T15:49:54.533Z,20
2018-12-11T15:51:02.529Z,16